Friday, January 19, 2018, 10:36 AM EST
Back to Local

KMTP, Montauk Airport

Location: Montauk, NY, United States Lat: 41.067
Local Time: 10:36 AM EST (15:36 GMT) Lon: -71.917
Time Zone: US/Eastern Elev: 6 ft

Show me the last for .
Show Coded

Time T Td Feel RH Dir Speed Gust Alt SLP Vis Weather Sky Remarks
2018-01-19 09:54 31 21 21 66 260° 13 - 30.06 30.06 0 None
2018-01-19 08:54 31 21 23 66 270° 9 - 30.05 30.05 0 None
2018-01-19 07:54 29 21 20 71 250° 10 - 30.04 30.04 0 None
2018-01-19 06:54 29 19 17 66 270° 8 17 30.04 30.04 0 6-hr Min Temp (7am): 28.0°F
6-hr Max Temp (7am): 30.0°F
2018-01-19 05:54 29 18 19 63 290° 12 - 30.03 30.03 0 None
2018-01-19 04:54 30 19 16 63 300° 14 24 30.03 30.02 0 None
2018-01-19 03:54 29 18 16 63 300° 10 21 30.01 30.01 0 None
2018-01-19 02:54 29 18 16 63 320° 14 21 30.00 30.00 0 None
2018-01-19 01:54 28 18 15 65 320° 12 21 30.00 30.00 0 None
2018-01-19 00:54 28 18 14 65 310° 15 23 30.00 30.00 0 6-hr Min Temp (1am): 28.0°F
6-hr Max Temp (1am): 30.9°F
2018-01-18 23:54 29 18 15 63 310° 13 22 30.01 30.00 0 24-hr Min Temp (12am): 25.0°F
24-hr Max Temp (12am): 36.0°F
2018-01-18 22:54 30 19 17 63 310° 16 23 30.01 30.01 0 None
2018-01-18 21:54 30 17 17 58 310° 13 21 30.01 30.01 0 None
2018-01-18 20:54 30 17 20 58 320° 13 - 30.00 29.99 0 None
2018-01-18 19:54 31 16 22 53 340° 12 - 29.98 29.98 0 None
2018-01-18 18:54 31 16 22 53 340° 12 - 29.97 29.97 0 6-hr Min Temp (7pm): 30.9°F
6-hr Max Temp (7pm): 36.0°F
2018-01-18 17:54 32 15 23 49 330° 12 - 29.94 29.93 0 None
2018-01-18 16:54 33 15 25 47 320° 9 - 29.92 29.91 0 None
2018-01-18 15:54 35 15 26 43 330° 13 - 29.88 29.88 0 None
2018-01-18 14:54 35 16 24 45 350° 10 21 29.86 29.85 0 None
2018-01-18 13:54 35 16 26 45 320° 13 - 29.86 29.86 0 None
2018-01-18 12:54 35 15 24 43 320° 13 20 29.88 29.88 0 6-hr Min Temp (1pm): 25.0°F
6-hr Max Temp (1pm): 35.1°F
2018-01-18 11:54 33 18 23 53 320° 14 - 29.91 29.90 0 None
2018-01-18 10:54 31 15 21 51 320° 13 - 29.97 29.97 0 Pressure falling rapidly

Support USWX by starting your Amazon purchase here.